sensor_id;sensor_type;location;lat;lon;timestamp;pressure;altitude;pressure_sealevel;temperature;humidity
86212;BME280;76867;47.634;8.270;2024-03-02T00:04:53;96738.44;;;3.89;87.33
86212;BME280;76867;47.634;8.270;2024-03-02T00:14:53;96742.03;;;3.81;87.35
86212;BME280;76867;47.634;8.270;2024-03-02T00:24:54;96748.53;;;3.80;87.60
86212;BME280;76867;47.634;8.270;2024-03-02T00:34:54;96756.84;;;3.75;88.13
86212;BME280;76867;47.634;8.270;2024-03-02T00:45:11;96744.53;;;3.53;88.20
86212;BME280;76867;47.634;8.270;2024-03-02T00:55:36;96737.13;;;3.29;89.19
86212;BME280;76867;47.634;8.270;2024-03-02T01:05:44;96751.13;;;3.10;88.27
86212;BME280;76867;47.634;8.270;2024-03-02T01:15:50;96751.56;;;3.12;87.99
86212;BME280;76867;47.634;8.270;2024-03-02T01:26:00;96756.84;;;2.87;87.73
86212;BME280;76867;47.634;8.270;2024-03-02T01:36:04;96769.84;;;2.85;87.90
86212;BME280;76867;47.634;8.270;2024-03-02T01:46:10;96773.50;;;2.81;88.34
86212;BME280;76867;47.634;8.270;2024-03-02T01:56:13;96768.91;;;2.60;87.52
86212;BME280;76867;47.634;8.270;2024-03-02T02:06:14;96762.44;;;2.53;87.48
86212;BME280;76867;47.634;8.270;2024-03-02T02:16:17;96755.66;;;2.46;87.95
86212;BME280;76867;47.634;8.270;2024-03-02T02:26:23;96744.91;;;2.46;88.81
86212;BME280;76867;47.634;8.270;2024-03-02T02:36:24;96732.59;;;2.87;89.10
86212;BME280;76867;47.634;8.270;2024-03-02T02:46:31;96734.72;;;2.73;90.08
86212;BME280;76867;47.634;8.270;2024-03-02T02:56:31;96735.59;;;2.86;89.51
86212;BME280;76867;47.634;8.270;2024-03-02T03:06:32;96727.31;;;2.91;89.72
86212;BME280;76867;47.634;8.270;2024-03-02T03:16:32;96720.16;;;2.95;88.61
86212;BME280;76867;47.634;8.270;2024-03-02T03:26:35;96717.91;;;2.97;89.22
86212;BME280;76867;47.634;8.270;2024-03-02T03:36:39;96725.34;;;3.00;89.17
86212;BME280;76867;47.634;8.270;2024-03-02T03:46:47;96730.53;;;2.84;89.36
86212;BME280;76867;47.634;8.270;2024-03-02T03:56:48;96716.28;;;2.84;89.41
86212;BME280;76867;47.634;8.270;2024-03-02T04:06:48;96729.69;;;2.92;89.11
86212;BME280;76867;47.634;8.270;2024-03-02T04:16:56;96732.38;;;2.72;89.75
86212;BME280;76867;47.634;8.270;2024-03-02T04:26:59;96746.25;;;3.03;88.64
86212;BME280;76867;47.634;8.270;2024-03-02T04:37:02;96745.97;;;2.75;89.27
86212;BME280;76867;47.634;8.270;2024-03-02T04:47:04;96733.88;;;2.60;89.07
86212;BME280;76867;47.634;8.270;2024-03-02T04:57:05;96735.06;;;2.72;89.92
86212;BME280;76867;47.634;8.270;2024-03-02T05:07:10;96749.38;;;2.84;90.37
86212;BME280;76867;47.634;8.270;2024-03-02T05:17:14;96754.19;;;3.00;89.73
86212;BME280;76867;47.634;8.270;2024-03-02T05:27:17;96745.94;;;3.05;89.54
86212;BME280;76867;47.634;8.270;2024-03-02T05:37:18;96756.88;;;3.21;89.74
86212;BME280;76867;47.634;8.270;2024-03-02T05:47:28;96768.72;;;3.28;90.01
86212;BME280;76867;47.634;8.270;2024-03-02T05:57:38;96748.47;;;3.22;89.29
86212;BME280;76867;47.634;8.270;2024-03-02T06:08:31;96743.78;;;3.31;88.56
86212;BME280;76867;47.634;8.270;2024-03-02T06:18:35;96765.41;;;3.44;88.89
86212;BME280;76867;47.634;8.270;2024-03-02T06:28:39;96780.94;;;3.47;89.19
86212;BME280;76867;47.634;8.270;2024-03-02T06:38:39;96760.72;;;3.53;88.13
86212;BME280;76867;47.634;8.270;2024-03-02T06:49:30;96765.16;;;3.82;87.73
86212;BME280;76867;47.634;8.270;2024-03-02T06:59:13;96763.31;;;4.07;87.66
86212;BME280;76867;47.634;8.270;2024-03-02T07:09:28;96755.91;;;4.41;85.85
86212;BME280;76867;47.634;8.270;2024-03-02T07:30:26;96762.03;;;4.78;83.68
86212;BME280;76867;47.634;8.270;2024-03-02T07:40:26;96764.50;;;5.36;82.28
86212;BME280;76867;47.634;8.270;2024-03-02T07:50:27;96782.00;;;5.54;82.28
86212;BME280;76867;47.634;8.270;2024-03-02T08:00:27;96765.56;;;5.91;81.16
86212;BME280;76867;47.634;8.270;2024-03-02T08:10:28;96765.53;;;6.35;78.59
86212;BME280;76867;47.634;8.270;2024-03-02T08:20:28;96764.38;;;6.52;77.25
86212;BME280;76867;47.634;8.270;2024-03-02T08:30:29;96758.28;;;6.90;75.74
86212;BME280;76867;47.634;8.270;2024-03-02T08:40:29;96758.19;;;6.87;75.76
86212;BME280;76867;47.634;8.270;2024-03-02T08:50:29;96727.38;;;7.14;75.12
86212;BME280;76867;47.634;8.270;2024-03-02T09:00:30;96717.03;;;7.39;72.34
86212;BME280;76867;47.634;8.270;2024-03-02T09:10:30;96709.06;;;8.16;70.81
86212;BME280;76867;47.634;8.270;2024-03-02T09:20:31;96697.44;;;7.92;72.21
86212;BME280;76867;47.634;8.270;2024-03-02T09:30:31;96692.69;;;8.35;69.98
86212;BME280;76867;47.634;8.270;2024-03-02T09:40:31;96691.81;;;8.54;69.83
86212;BME280;76867;47.634;8.270;2024-03-02T09:50:32;96682.00;;;8.46;70.59
86212;BME280;76867;47.634;8.270;2024-03-02T10:00:32;96667.75;;;9.16;67.13
86212;BME280;76867;47.634;8.270;2024-03-02T10:10:40;96671.88;;;9.37;69.29
86212;BME280;76867;47.634;8.270;2024-03-02T10:20:42;96639.91;;;9.71;65.67
86212;BME280;76867;47.634;8.270;2024-03-02T10:30:42;96630.13;;;9.63;67.13
86212;BME280;76867;47.634;8.270;2024-03-02T10:40:46;96612.53;;;9.57;66.93
86212;BME280;76867;47.634;8.270;2024-03-02T10:50:47;96601.44;;;9.76;66.63
86212;BME280;76867;47.634;8.270;2024-03-02T11:00:47;96590.44;;;9.65;65.45
86212;BME280;76867;47.634;8.270;2024-03-02T11:10:54;96585.47;;;10.30;64.56
86212;BME280;76867;47.634;8.270;2024-03-02T11:20:58;96579.78;;;10.57;64.30
86212;BME280;76867;47.634;8.270;2024-03-02T11:31:03;96567.06;;;11.04;64.61
86212;BME280;76867;47.634;8.270;2024-03-02T11:41:06;96546.03;;;11.15;62.43
86212;BME280;76867;47.634;8.270;2024-03-02T11:51:08;96528.84;;;11.04;62.29
86212;BME280;76867;47.634;8.270;2024-03-02T12:01:10;96509.03;;;11.50;59.84
86212;BME280;76867;47.634;8.270;2024-03-02T12:11:13;96490.28;;;11.95;59.52
86212;BME280;76867;47.634;8.270;2024-03-02T12:21:13;96490.28;;;11.95;59.16
86212;BME280;76867;47.634;8.270;2024-03-02T12:31:14;96476.09;;;12.28;57.53
86212;BME280;76867;47.634;8.270;2024-03-02T12:41:15;96452.16;;;12.54;56.30
86212;BME280;76867;47.634;8.270;2024-03-02T12:51:16;96418.22;;;13.00;52.00
86212;BME280;76867;47.634;8.270;2024-03-02T13:01:16;96391.03;;;13.27;48.37
86212;BME280;76867;47.634;8.270;2024-03-02T13:11:19;96382.25;;;13.47;44.92
86212;BME280;76867;47.634;8.270;2024-03-02T13:21:20;96374.38;;;13.49;41.82
86212;BME280;76867;47.634;8.270;2024-03-02T13:31:21;96361.38;;;13.15;43.92
86212;BME280;76867;47.634;8.270;2024-03-02T13:41:21;96349.66;;;12.66;43.98
86212;BME280;76867;47.634;8.270;2024-03-02T13:51:22;96357.75;;;13.29;42.81
86212;BME280;76867;47.634;8.270;2024-03-02T14:01:22;96329.22;;;13.64;41.38
86212;BME280;76867;47.634;8.270;2024-03-02T14:11:23;96328.72;;;13.73;40.31
86212;BME280;76867;47.634;8.270;2024-03-02T14:21:23;96321.84;;;13.57;40.66
86212;BME280;76867;47.634;8.270;2024-03-02T14:31:24;96312.50;;;13.51;40.92
86212;BME280;76867;47.634;8.270;2024-03-02T14:41:24;96317.28;;;13.02;48.76
86212;BME280;76867;47.634;8.270;2024-03-02T14:51:32;96300.47;;;13.00;49.08
86212;BME280;76867;47.634;8.270;2024-03-02T15:01:32;96283.56;;;12.67;49.78
86212;BME280;76867;47.634;8.270;2024-03-02T15:11:33;96293.13;;;12.41;50.40
86212;BME280;76867;47.634;8.270;2024-03-02T15:21:33;96273.25;;;12.37;50.90
86212;BME280;76867;47.634;8.270;2024-03-02T15:31:33;96257.66;;;12.30;49.36
86212;BME280;76867;47.634;8.270;2024-03-02T15:41:34;96252.22;;;12.72;47.84
86212;BME280;76867;47.634;8.270;2024-03-02T15:51:34;96216.44;;;12.93;46.02
86212;BME280;76867;47.634;8.270;2024-03-02T16:01:37;96191.91;;;13.51;45.50
86212;BME280;76867;47.634;8.270;2024-03-02T16:11:37;96201.72;;;13.18;46.63
86212;BME280;76867;47.634;8.270;2024-03-02T16:21:38;96199.69;;;13.22;46.63
86212;BME280;76867;47.634;8.270;2024-03-02T16:31:38;96196.00;;;13.01;45.20
86212;BME280;76867;47.634;8.270;2024-03-02T16:41:38;96185.22;;;12.84;45.34
86212;BME280;76867;47.634;8.270;2024-03-02T16:51:47;96196.31;;;12.28;48.10
86212;BME280;76867;47.634;8.270;2024-03-02T17:01:48;96190.88;;;11.61;51.09
86212;BME280;76867;47.634;8.270;2024-03-02T17:11:48;96176.72;;;11.07;54.45
86212;BME280;76867;47.634;8.270;2024-03-02T17:21:53;96188.94;;;10.49;59.12
86212;BME280;76867;47.634;8.270;2024-03-02T17:31:54;96179.59;;;10.36;59.60
86212;BME280;76867;47.634;8.270;2024-03-02T17:41:55;96189.69;;;9.78;61.41
86212;BME280;76867;47.634;8.270;2024-03-02T17:51:56;96191.94;;;9.43;62.97
86212;BME280;76867;47.634;8.270;2024-03-02T18:02:05;96185.94;;;9.02;64.81
86212;BME280;76867;47.634;8.270;2024-03-02T18:12:37;96168.34;;;8.78;66.09
86212;BME280;76867;47.634;8.270;2024-03-02T18:22:43;96173.53;;;8.39;67.43
86212;BME280;76867;47.634;8.270;2024-03-02T18:32:45;96172.09;;;8.04;68.94
86212;BME280;76867;47.634;8.270;2024-03-02T18:42:48;96168.88;;;7.88;70.55
86212;BME280;76867;47.634;8.270;2024-03-02T18:53:49;96159.22;;;7.49;71.76
86212;BME280;76867;47.634;8.270;2024-03-02T19:04:36;96145.69;;;7.53;72.18
86212;BME280;76867;47.634;8.270;2024-03-02T19:14:38;96146.59;;;7.27;74.06
86212;BME280;76867;47.634;8.270;2024-03-02T19:24:52;96158.34;;;7.41;74.05
86212;BME280;76867;47.634;8.270;2024-03-02T19:34:52;96157.03;;;7.25;74.09
86212;BME280;76867;47.634;8.270;2024-03-02T19:44:52;96158.84;;;7.13;74.69
86212;BME280;76867;47.634;8.270;2024-03-02T19:54:53;96176.19;;;7.05;76.13
86212;BME280;76867;47.634;8.270;2024-03-02T20:04:53;96164.78;;;6.92;76.80
86212;BME280;76867;47.634;8.270;2024-03-02T20:14:53;96167.09;;;6.90;77.20
86212;BME280;76867;47.634;8.270;2024-03-02T20:24:54;96152.69;;;6.86;77.51
86212;BME280;76867;47.634;8.270;2024-03-02T20:34:54;96153.38;;;6.76;78.28
86212;BME280;76867;47.634;8.270;2024-03-02T20:44:54;96133.38;;;6.88;77.78
86212;BME280;76867;47.634;8.270;2024-03-02T20:54:55;96104.78;;;6.97;78.23
86212;BME280;76867;47.634;8.270;2024-03-02T21:04:55;96114.28;;;6.81;78.93
86212;BME280;76867;47.634;8.270;2024-03-02T21:14:56;96125.09;;;6.77;79.16
86212;BME280;76867;47.634;8.270;2024-03-02T21:24:56;96112.88;;;6.90;78.52
86212;BME280;76867;47.634;8.270;2024-03-02T21:35:01;96110.31;;;7.05;78.37
86212;BME280;76867;47.634;8.270;2024-03-02T21:45:01;96122.84;;;6.83;79.17
86212;BME280;76867;47.634;8.270;2024-03-02T21:55:01;96123.13;;;6.74;79.66
86212;BME280;76867;47.634;8.270;2024-03-02T22:05:02;96117.97;;;6.65;80.01
86212;BME280;76867;47.634;8.270;2024-03-02T22:15:02;96101.16;;;6.53;80.78
86212;BME280;76867;47.634;8.270;2024-03-02T22:25:03;96098.66;;;6.37;81.29
86212;BME280;76867;47.634;8.270;2024-03-02T22:35:05;96100.09;;;6.31;81.83
86212;BME280;76867;47.634;8.270;2024-03-02T22:45:06;96101.03;;;6.12;82.06
86212;BME280;76867;47.634;8.270;2024-03-02T22:55:06;96092.72;;;6.01;82.79
86212;BME280;76867;47.634;8.270;2024-03-02T23:05:07;96094.06;;;5.88;82.70
86212;BME280;76867;47.634;8.270;2024-03-02T23:15:07;96092.03;;;5.81;82.74
86212;BME280;76867;47.634;8.270;2024-03-02T23:25:07;96097.78;;;5.53;83.36
86212;BME280;76867;47.634;8.270;2024-03-02T23:35:10;96083.50;;;5.56;83.99
86212;BME280;76867;47.634;8.270;2024-03-02T23:45:10;96077.63;;;5.50;84.48
86212;BME280;76867;47.634;8.270;2024-03-02T23:55:12;96081.84;;;5.25;84.77
